Time;durP1;ratioP1;P1;durP2;ratioP2;P2;SDS_P1;SDS_P2;PMS_P1;PMS_P2;Temp;Humidity;BMP_temperature;BMP_pressure;BME280_temperature;BME280_humidity;BME280_pressure;Samples;Min_cycle;Max_cycle;Signal;HPM_P1;HPM_P2
2021/06/29 00:00:59;;;;;;;;;3.00;2.50;;;;;20.10;58.38;100986.22;4924549;28;45455;-68
2021/06/29 00:03:24;;;;;;;;;5.25;4.25;;;;;20.08;58.11;100982.78;4925300;28;45270;-68
2021/06/29 00:05:50;;;;;;;;;4.00;2.50;;;;;20.06;58.22;100984.69;4925046;28;45188;-68
2021/06/29 00:08:15;;;;;;;;;3.00;2.00;;;;;19.96;58.45;100979.06;4924997;28;45417;-68
2021/06/29 00:10:41;;;;;;;;;2.00;2.00;;;;;19.93;58.41;100984.69;4924365;28;46421;-68
2021/06/29 00:13:07;;;;;;;;;2.00;2.00;;;;;19.92;58.41;100985.63;4924879;28;45359;-68
2021/06/29 00:15:33;;;;;;;;;1.00;1.00;;;;;19.88;58.70;100981.41;4924710;28;45362;-68
2021/06/29 00:17:59;;;;;;;;;1.00;1.00;;;;;19.84;58.77;100974.44;4924662;28;45616;-68
2021/06/29 00:20:25;;;;;;;;;1.00;1.00;;;;;19.87;58.86;100987.78;4924701;28;45426;-68
2021/06/29 00:22:50;;;;;;;;;2.00;1.25;;;;;19.87;58.91;100984.22;4945240;28;45359;-68
2021/06/29 00:25:17;;;;;;;;;3.00;2.00;;;;;19.82;59.17;100976.41;4925092;28;45219;-68
2021/06/29 00:27:43;;;;;;;;;1.00;1.00;;;;;19.82;59.03;100981.81;4924874;28;45553;-68
2021/06/29 00:30:09;;;;;;;;;1.00;0.50;;;;;19.77;59.17;100975.84;4924390;28;45333;-68
2021/06/29 00:32:36;;;;;;;;;1.50;1.50;;;;;19.77;59.17;100982.13;4924622;28;45332;-68
2021/06/29 00:35:01;;;;;;;;;1.00;1.00;;;;;19.61;59.21;100952.47;4937126;28;45281;-68
2021/06/29 00:37:26;;;;;;;;;1.00;1.00;;;;;19.69;59.10;100972.75;4924702;28;45299;-68
2021/06/29 00:39:52;;;;;;;;;0.50;0.50;;;;;19.62;59.21;100961.47;4924261;28;46167;-68
2021/06/29 00:42:17;;;;;;;;;1.00;1.00;;;;;19.66;59.45;100971.09;4924092;28;45350;-68
2021/06/29 00:44:45;;;;;;;;;2.00;2.00;;;;;19.60;59.47;100961.56;4924332;28;45327;-68
2021/06/29 00:47:10;;;;;;;;;1.50;1.50;;;;;19.57;59.50;100964.47;4924488;28;45335;-68
2021/06/29 00:49:37;;;;;;;;;2.00;2.00;;;;;19.57;59.72;100967.19;4924160;28;46270;-68
2021/06/29 00:52:03;;;;;;;;;2.75;2.00;;;;;19.46;59.83;100955.34;4924382;28;45209;-68
2021/06/29 00:54:28;;;;;;;;;1.75;1.75;;;;;19.49;59.71;100960.53;4923367;28;45374;-68
2021/06/29 00:56:54;;;;;;;;;2.25;2.00;;;;;19.50;59.80;100957.75;4924442;28;45310;-68
2021/06/29 00:59:19;;;;;;;;;2.00;2.00;;;;;19.51;59.88;100956.78;4923746;28;47299;-68
2021/06/29 01:01:45;;;;;;;;;1.75;1.75;;;;;19.53;59.92;100954.84;4935699;28;45212;-68
2021/06/29 01:04:10;;;;;;;;;2.00;2.00;;;;;19.50;59.94;100955.03;4922667;28;45248;-68
2021/06/29 01:06:37;;;;;;;;;2.00;1.00;;;;;19.49;60.03;100955.13;4924306;28;45354;-68
2021/06/29 01:09:03;;;;;;;;;1.75;1.50;;;;;19.46;59.92;100953.47;4923663;28;46276;-68
2021/06/29 01:11:29;;;;;;;;;1.75;1.00;;;;;19.43;60.13;100949.16;4923937;28;45386;-68
2021/06/29 01:13:54;;;;;;;;;1.50;1.50;;;;;19.46;60.14;100941.78;4924007;28;45303;-68
2021/06/29 01:16:20;;;;;;;;;2.00;2.00;;;;;19.46;60.23;100944.50;4923973;28;45291;-68
2021/06/29 01:18:45;;;;;;;;;2.75;2.75;;;;;19.37;60.06;100937.88;4922271;28;46062;-68
2021/06/29 01:21:17;;;;;;;;;2.75;1.75;;;;;19.41;60.26;100942.09;4923936;28;45556;-68
2021/06/29 01:23:48;;;;;;;;;2.00;2.00;;;;;19.42;60.01;100942.00;4929788;28;45262;-68
2021/06/29 01:26:28;;;;;;;;;1.00;1.00;;;;;19.33;60.38;100936.31;4923855;28;45376;-68
2021/06/29 01:29:05;;;;;;;;;1.25;1.25;;;;;19.32;60.38;100932.75;4923666;28;46222;-68
2021/06/29 01:31:32;;;;;;;;;2.00;2.00;;;;;19.26;60.14;100930.44;4923840;28;45519;-68
2021/06/29 01:33:58;;;;;;;;;2.75;2.00;;;;;19.32;60.63;100948.13;4948908;28;45489;-68
2021/06/29 01:36:27;;;;;;;;;1.50;1.50;;;;;19.23;60.30;100934.22;4940408;28;45425;-68
2021/06/29 01:38:52;;;;;;;;;3.00;3.00;;;;;19.21;60.37;100933.47;4923480;28;45423;-68
2021/06/29 01:41:22;;;;;;;;;1.25;1.25;;;;;19.30;60.52;100942.81;4923398;28;45445;-68
2021/06/29 01:44:01;;;;;;;;;1.00;1.00;;;;;19.26;60.28;100925.03;4923793;28;45230;-68
2021/06/29 01:46:30;;;;;;;;;2.50;1.25;;;;;19.24;60.83;100918.84;4922135;28;45453;-68
2021/06/29 01:48:56;;;;;;;;;2.00;2.00;;;;;19.24;60.46;100919.75;4923390;28;46080;-68
2021/06/29 01:51:23;;;;;;;;;1.00;1.00;;;;;19.21;60.72;100913.66;4923406;28;45498;-68
2021/06/29 01:53:50;;;;;;;;;2.00;2.00;;;;;19.16;60.73;100908.56;4923487;28;45283;-68
2021/06/29 01:56:16;;;;;;;;;3.00;3.00;;;;;19.23;60.60;100919.84;4923384;28;45537;-68
2021/06/29 01:58:52;;;;;;;;;2.00;2.00;;;;;19.23;60.73;100922.56;4923099;28;46456;-68
2021/06/29 02:01:18;;;;;;;;;1.25;1.25;;;;;19.21;60.53;100928.06;4923264;28;45477;-68
2021/06/29 02:03:43;;;;;;;;;3.00;2.00;;;;;19.20;60.91;100925.47;4910656;28;45396;-68
2021/06/29 02:06:09;;;;;;;;;2.00;2.00;;;;;19.16;61.06;100919.38;4923302;28;45341;-68
2021/06/29 02:08:34;;;;;;;;;2.75;2.75;;;;;19.19;60.83;100919.16;4922708;28;45510;-68
2021/06/29 02:10:59;;;;;;;;;2.00;2.00;;;;;19.11;60.88;100908.00;4921828;28;45609;-68
2021/06/29 02:13:25;;;;;;;;;2.25;2.25;;;;;19.14;61.01;100923.13;4921964;28;45302;-68
2021/06/29 02:15:50;;;;;;;;;1.75;1.75;;;;;19.12;60.88;100917.81;4904092;29;45303;-68
2021/06/29 02:18:16;;;;;;;;;3.75;3.50;;;;;19.13;61.02;100926.81;4920714;28;45232;-68
2021/06/29 02:20:42;;;;;;;;;3.75;2.25;;;;;19.12;60.89;100923.25;4904071;28;45237;-68
2021/06/29 02:23:07;;;;;;;;;1.75;1.75;;;;;19.07;60.98;100917.25;4918418;28;45410;-68
2021/06/29 02:25:33;;;;;;;;;4.00;3.00;;;;;19.02;61.01;100909.44;4937576;28;45553;-68
2021/06/29 02:27:59;;;;;;;;;2.50;2.25;;;;;19.06;61.21;100916.41;4908568;28;45323;-68
2021/06/29 02:30:24;;;;;;;;;2.00;2.00;;;;;19.06;61.40;100912.81;4903649;28;45233;-68
2021/06/29 02:32:50;;;;;;;;;2.25;2.25;;;;;19.07;61.42;100918.13;4921122;28;45345;-68
2021/06/29 02:35:16;;;;;;;;;2.50;2.50;;;;;19.03;61.39;100913.91;4925801;28;45482;-68
2021/06/29 02:37:41;;;;;;;;;3.75;3.75;;;;;19.04;61.53;100929.16;4916224;28;46028;-68
2021/06/29 02:40:08;;;;;;;;;5.00;2.00;;;;;19.03;61.48;100926.56;4922294;28;45259;-68
2021/06/29 02:42:34;;;;;;;;;4.00;3.00;;;;;19.02;61.80;100922.09;4937160;28;45446;-68
2021/06/29 02:45:07;;;;;;;;;2.00;2.00;;;;;18.99;61.65;100925.00;4922531;28;45498;-68
2021/06/29 02:47:37;;;;;;;;;1.75;1.75;;;;;18.94;61.63;100922.59;4922570;28;45250;-68
2021/06/29 02:50:05;;;;;;;;;1.00;1.00;;;;;18.94;61.63;100921.72;4922586;28;45227;-68
2021/06/29 02:52:32;;;;;;;;;3.00;2.50;;;;;18.92;61.49;100920.97;4922771;28;45349;-68
2021/06/29 02:54:57;;;;;;;;;2.75;2.75;;;;;18.88;61.62;100915.75;4937181;28;45517;-68
2021/06/29 02:57:23;;;;;;;;;1.00;1.00;;;;;18.87;61.54;100915.84;4922495;28;45306;-68
2021/06/29 02:59:48;;;;;;;;;0.75;0.75;;;;;18.76;61.59;100896.69;4922358;28;45468;-68
2021/06/29 03:02:13;;;;;;;;;2.00;1.00;;;;;18.80;61.58;100901.81;4922535;28;46019;-68
2021/06/29 03:04:39;;;;;;;;;3.00;3.00;;;;;18.80;61.70;100896.41;4922520;28;45591;-68
2021/06/29 03:07:04;;;;;;;;;3.25;2.50;;;;;18.73;61.16;100883.38;4922253;28;46315;-68
2021/06/29 03:09:30;;;;;;;;;1.00;1.00;;;;;18.77;61.41;100895.75;4922141;28;45462;-68
2021/06/29 03:11:55;;;;;;;;;1.00;1.00;;;;;18.72;61.22;100890.63;4922253;28;45382;-68
2021/06/29 03:14:20;;;;;;;;;2.25;2.25;;;;;18.70;61.27;100889.88;4922348;28;45315;-68
2021/06/29 03:16:46;;;;;;;;;1.00;1.00;;;;;18.62;61.24;100875.97;4923014;28;46350;-68
2021/06/29 03:19:11;;;;;;;;;2.00;2.00;;;;;18.68;61.21;100883.69;4925631;28;45428;-68
2021/06/29 03:21:36;;;;;;;;;2.00;1.50;;;;;18.63;61.17;100880.41;4925782;28;45776;-68
2021/06/29 03:24:03;;;;;;;;;1.25;1.00;;;;;18.61;61.34;100879.63;4931723;28;45448;-68
2021/06/29 03:26:29;;;;;;;;;2.50;2.50;;;;;18.58;61.20;100872.59;4925499;28;46611;-68
2021/06/29 03:28:54;;;;;;;;;2.00;2.00;;;;;18.58;61.32;100869.03;4925502;28;45434;-68
2021/06/29 03:31:19;;;;;;;;;1.75;1.75;;;;;18.58;61.29;100867.19;4925624;28;45224;-68
2021/06/29 03:33:45;;;;;;;;;1.75;0.50;;;;;18.60;61.39;100876.06;4934105;28;45220;-68
2021/06/29 03:36:11;;;;;;;;;3.00;3.00;;;;;18.54;61.14;100865.63;4929157;28;46442;-68
2021/06/29 03:38:37;;;;;;;;;4.50;3.50;;;;;18.57;61.70;100870.00;4925369;28;45239;-68
2021/06/29 03:41:03;;;;;;;;;3.00;3.00;;;;;18.54;61.56;100872.88;4925361;28;45296;-68
2021/06/29 03:43:28;;;;;;;;;11.00;10.00;;;;;18.54;61.71;100873.75;4925352;28;45457;-68
2021/06/29 03:45:54;;;;;;;;;7.50;7.50;;;;;18.43;61.73;100850.13;4924896;28;46165;-68
2021/06/29 03:48:19;;;;;;;;;9.75;7.00;;;;;18.48;61.75;100868.75;4925468;28;45231;-68
2021/06/29 03:50:44;;;;;;;;;8.25;5.00;;;;;18.50;61.37;100875.78;4925259;28;45742;-68
2021/06/29 03:53:10;;;;;;;;;4.75;4.25;;;;;18.48;61.84;100869.59;4925515;28;45457;-68
2021/06/29 03:55:35;;;;;;;;;3.25;3.25;;;;;18.52;61.37;100875.69;4925058;28;45998;-68
2021/06/29 03:58:02;;;;;;;;;2.75;2.00;;;;;18.55;61.84;100867.38;4925129;28;45309;-68
2021/06/29 04:00:27;;;;;;;;;2.75;1.75;;;;;18.52;61.87;100868.44;4924944;28;45252;-68
2021/06/29 04:02:52;;;;;;;;;5.25;4.50;;;;;18.57;61.50;100875.41;4925226;28;45465;-68
2021/06/29 04:05:18;;;;;;;;;1.50;1.50;;;;;18.56;61.47;100879.06;4924972;28;46292;-68
2021/06/29 04:07:45;;;;;;;;;1.00;1.00;;;;;18.51;61.77;100871.25;4923794;28;45248;-68
2021/06/29 04:10:11;;;;;;;;;1.25;1.00;;;;;18.54;61.72;100879.16;4924740;28;45355;-68
2021/06/29 04:12:36;;;;;;;;;4.50;2.00;;;;;18.52;61.86;100876.53;4924895;28;45488;-68
2021/06/29 04:15:03;;;;;;;;;2.00;2.00;;;;;18.54;61.97;100883.69;4924628;28;45777;-68
2021/06/29 04:17:28;;;;;;;;;2.00;1.25;;;;;18.56;61.52;100876.34;4924890;28;45381;-68
2021/06/29 04:19:53;;;;;;;;;2.00;2.00;;;;;18.57;61.69;100884.38;4924791;28;45476;-68
2021/06/29 04:22:19;;;;;;;;;3.00;1.75;;;;;18.55;61.62;100874.63;4926261;28;45814;-68
2021/06/29 04:24:44;;;;;;;;;2.00;2.00;;;;;18.60;61.92;100876.06;4929153;28;46293;-68
2021/06/29 04:27:10;;;;;;;;;2.00;2.00;;;;;18.59;61.52;100868.91;4924882;28;45437;-68
2021/06/29 04:29:35;;;;;;;;;3.00;3.00;;;;;18.58;61.67;100869.91;4923350;28;45531;-68
2021/06/29 04:32:00;;;;;;;;;1.75;1.75;;;;;18.58;61.75;100869.03;4924841;28;45526;-68
2021/06/29 04:34:26;;;;;;;;;2.25;2.00;;;;;18.58;61.74;100880.72;4936179;28;45394;-68
2021/06/29 04:36:51;;;;;;;;;3.00;3.00;;;;;18.57;61.72;100876.25;4924624;28;45224;-68
2021/06/29 04:39:17;;;;;;;;;3.00;3.00;;;;;18.54;61.90;100871.03;4924614;28;45223;-68
2021/06/29 04:41:42;;;;;;;;;1.25;1.25;;;;;18.57;62.10;100868.16;4924306;28;45629;-68
2021/06/29 04:44:08;;;;;;;;;3.00;2.00;;;;;18.55;61.47;100864.69;4924237;28;46071;-68
2021/06/29 04:46:33;;;;;;;;;2.25;2.00;;;;;18.49;61.60;100856.94;4924398;28;45309;-68
2021/06/29 04:48:59;;;;;;;;;1.75;1.50;;;;;18.56;62.05;100865.53;4924550;28;45433;-68
2021/06/29 04:51:25;;;;;;;;;1.75;1.75;;;;;18.52;61.77;100857.63;4924265;28;45300;-68
2021/06/29 04:53:51;;;;;;;;;1.50;1.50;;;;;18.55;61.81;100861.97;4922835;28;48402;-68
2021/06/29 04:56:18;;;;;;;;;2.00;1.00;;;;;18.47;61.86;100846.22;4924435;28;45338;-68
2021/06/29 04:58:52;;;;;;;;;5.75;1.75;;;;;18.48;62.15;100847.97;4924262;28;45311;-68
2021/06/29 05:01:17;;;;;;;;;2.00;2.00;;;;;18.50;61.70;100851.44;4924121;28;45550;-68
2021/06/29 05:03:42;;;;;;;;;2.25;2.25;;;;;18.49;61.75;100854.25;4924023;28;46494;-68
2021/06/29 05:06:08;;;;;;;;;5.50;3.50;;;;;18.54;61.78;100871.03;4924201;28;45315;-68
2021/06/29 05:08:34;;;;;;;;;2.75;2.00;;;;;18.54;61.94;100873.75;4923837;28;45331;-68
2021/06/29 05:10:59;;;;;;;;;1.25;1.00;;;;;18.47;61.30;100867.00;4924018;28;45369;-68
2021/06/29 05:13:24;;;;;;;;;2.50;2.00;;;;;18.50;61.97;100869.50;4923903;28;46039;-68
2021/06/29 05:15:50;;;;;;;;;2.00;1.50;;;;;18.51;62.01;100871.25;4923805;28;45390;-68
2021/06/29 05:18:16;;;;;;;;;1.75;1.75;;;;;18.54;62.20;100878.28;4923875;28;45508;-68
2021/06/29 05:20:41;;;;;;;;;1.25;1.25;;;;;18.54;62.10;100887.25;4924007;28;45489;-68
2021/06/29 05:23:07;;;;;;;;;3.75;3.75;;;;;18.48;62.10;100884.97;4929500;28;45200;-68
2021/06/29 05:25:32;;;;;;;;;1.75;1.75;;;;;18.45;61.88;100883.31;4923832;28;45188;-68
2021/06/29 05:27:58;;;;;;;;;3.00;3.00;;;;;18.55;62.06;100905.22;4923803;28;45326;-68
2021/06/29 05:30:23;;;;;;;;;3.00;3.00;;;;;18.50;62.00;100885.72;4923823;28;45287;-68
2021/06/29 05:32:48;;;;;;;;;4.25;3.50;;;;;18.49;62.28;100887.56;4924535;28;45218;-68
2021/06/29 05:35:14;;;;;;;;;3.25;3.25;;;;;18.55;62.41;100896.25;4934789;28;45250;-68
2021/06/29 05:37:39;;;;;;;;;2.75;2.75;;;;;18.55;62.19;100901.66;4923726;28;45254;-68
2021/06/29 05:40:06;;;;;;;;;2.75;2.75;;;;;18.52;62.12;100895.47;4923000;28;45414;-68
2021/06/29 05:42:31;;;;;;;;;3.75;2.50;;;;;18.52;62.19;100900.00;4923183;28;46402;-67
2021/06/29 05:44:57;;;;;;;;;3.75;3.75;;;;;18.57;62.27;100907.84;4923101;28;45386;-68
2021/06/29 05:47:23;;;;;;;;;2.00;2.00;;;;;18.60;61.99;100913.06;4923594;28;45479;-68
2021/06/29 05:49:48;;;;;;;;;3.75;3.75;;;;;18.50;62.34;100894.69;4922307;28;45571;-68
2021/06/29 05:52:15;;;;;;;;;3.75;3.75;;;;;18.59;62.25;100909.47;4907917;28;45864;-68
2021/06/29 05:54:42;;;;;;;;;3.00;3.00;;;;;18.61;62.12;100901.25;4922929;28;45458;-73
2021/06/29 05:57:08;;;;;;;;;4.00;4.00;;;;;18.68;62.20;100908.03;4920379;28;45274;-72
2021/06/29 05:59:46;;;;;;;;;;;;;;;;;;;;;
2021/06/29 06:02:21;;;;;;;;;;;;;;;;;;;;;
2021/06/29 06:04:47;;;;;;;;;2.50;2.50;;;;;18.38;61.81;100870.31;4903277;28;71956;-73
2021/06/29 06:07:12;;;;;;;;;4.00;3.00;;;;;18.43;61.81;100882.53;4934351;28;45706;-73
2021/06/29 06:09:38;;;;;;;;;3.00;3.00;;;;;18.40;61.72;100871.06;4921596;28;45596;-72
2021/06/29 06:12:04;;;;;;;;;4.00;3.00;;;;;18.54;61.74;100889.97;4922239;28;45658;-72
2021/06/29 06:14:30;;;;;;;;;5.00;3.25;;;;;18.60;61.66;100905.81;4921457;28;45267;-73
2021/06/29 06:17:05;;;;;;;;;2.00;2.00;;;;;18.50;62.16;100886.59;4921583;28;45451;-73
2021/06/29 06:23:00;;;;;;;;;2.75;2.75;;;;;18.61;62.26;100909.38;4915489;28;45980;-72
2021/06/29 06:25:44;;;;;;;;;3.00;3.00;;;;;18.32;62.56;100869.69;4937176;28;45893;-73
2021/06/29 06:28:10;;;;;;;;;2.00;2.00;;;;;18.60;62.52;100916.63;4919829;28;45416;-71
2021/06/29 06:30:37;;;;;;;;;5.00;3.00;;;;;18.41;62.46;100875.50;4922244;28;45553;-71
2021/06/29 06:33:03;;;;;;;;;2.75;2.75;;;;;18.73;62.49;100932.03;4937312;28;47824;-70
2021/06/29 06:35:28;;;;;;;;;2.00;2.00;;;;;18.33;63.19;100865.19;4922827;28;46535;-70
2021/06/29 06:37:54;;;;;;;;;2.00;1.50;;;;;18.58;63.09;100905.03;4918315;28;45860;-70
2021/06/29 06:40:19;;;;;;;;;5.50;4.00;;;;;18.58;62.91;100899.63;4921608;28;45560;-72
2021/06/29 06:42:46;;;;;;;;;3.50;3.50;;;;;18.52;62.87;100889.19;4940764;28;47287;-71
2021/06/29 06:45:12;;;;;;;;;4.00;3.00;;;;;18.47;62.98;100875.09;4917801;28;45582;-71
2021/06/29 06:47:38;;;;;;;;;3.50;2.50;;;;;18.83;62.63;100933.25;4920264;28;45307;-71
2021/06/29 06:50:08;;;;;;;;;3.00;3.00;;;;;18.64;63.27;100901.97;4922149;28;45596;-71
2021/06/29 06:52:35;;;;;;;;;6.50;2.75;;;;;18.83;63.04;100925.16;4919881;28;45291;-72
2021/06/29 06:55:01;;;;;;;;;4.00;4.00;;;;;18.61;63.58;100888.63;4908405;28;46598;-72
2021/06/29 06:57:26;;;;;;;;;6.00;4.75;;;;;18.85;63.29;100931.31;4925099;28;45492;-72
2021/06/29 06:59:51;;;;;;;;;3.75;3.50;;;;;18.80;63.46;100917.19;4926358;28;45467;-72
2021/06/29 07:02:17;;;;;;;;;3.50;3.50;;;;;18.81;63.65;100925.22;4933468;28;47180;-72
2021/06/29 07:04:42;;;;;;;;;4.00;4.00;;;;;18.75;63.40;100916.63;4916919;28;45372;-72
2021/06/29 07:07:08;;;;;;;;;6.00;4.25;;;;;18.69;63.44;100916.03;4930667;28;45427;-72
2021/06/29 07:09:34;;;;;;;;;4.00;4.00;;;;;18.47;63.23;100885.91;4920967;28;45366;-74
2021/06/29 07:12:01;;;;;;;;;5.00;3.75;;;;;18.45;63.16;100891.41;4917526;28;45517;-71
2021/06/29 07:14:26;;;;;;;;;3.25;3.25;;;;;18.48;63.90;100899.34;4920863;28;46181;-71
2021/06/29 07:16:52;;;;;;;;;8.50;6.00;;;;;18.47;63.82;100903.00;4939997;28;45493;-71
2021/06/29 07:19:17;;;;;;;;;3.00;3.00;;;;;18.42;64.93;100901.56;4920658;28;45393;-71
2021/06/29 07:21:43;;;;;;;;;5.00;4.00;;;;;18.66;64.87;100945.09;4920806;28;45427;-71
2021/06/29 07:24:08;;;;;;;;;4.00;4.00;;;;;18.67;64.58;100946.84;4930104;28;45516;-71
2021/06/29 07:26:34;;;;;;;;;5.00;4.00;;;;;18.45;65.25;100917.59;4918108;28;45430;-71
2021/06/29 07:29:00;;;;;;;;;6.00;4.25;;;;;18.31;65.37;100894.13;4920465;28;45729;-71
2021/06/29 07:31:26;;;;;;;;;4.00;4.00;;;;;18.49;65.24;100922.72;4918834;28;45863;-71
2021/06/29 07:33:52;;;;;;;;;5.75;2.50;;;;;18.47;65.81;100916.50;4931155;28;45541;-71
2021/06/29 07:36:18;;;;;;;;;4.75;3.25;;;;;18.69;65.41;100948.50;4914866;28;45390;-71
2021/06/29 07:38:44;;;;;;;;;4.00;4.00;;;;;18.37;65.61;100895.56;4919538;28;45650;-71
2021/06/29 07:41:11;;;;;;;;;6.50;6.00;;;;;18.49;65.48;100916.41;4920959;28;45342;-71
2021/06/29 07:43:36;;;;;;;;;4.25;2.50;;;;;18.53;65.88;100923.38;4923378;28;45410;-71
2021/06/29 07:46:02;;;;;;;;;6.00;6.00;;;;;18.57;66.15;100924.91;4926427;28;45393;-71
2021/06/29 07:48:27;;;;;;;;;5.00;5.00;;;;;18.74;65.77;100937.34;4921040;28;45385;-71
2021/06/29 07:50:54;;;;;;;;;7.00;5.25;;;;;18.74;66.13;100933.78;4920935;28;46027;-71
2021/06/29 07:53:20;;;;;;;;;3.75;3.75;;;;;18.54;65.85;100898.06;4932490;28;45436;-71
2021/06/29 07:55:45;;;;;;;;;4.00;4.00;;;;;18.68;66.42;100925.13;4917241;28;45512;-71
2021/06/29 07:58:10;;;;;;;;;5.00;5.00;;;;;18.81;65.49;100940.53;4921082;28;45505;-71
2021/06/29 08:00:36;;;;;;;;;5.50;4.50;;;;;18.83;65.29;100944.06;4932937;28;47155;-71
2021/06/29 08:03:03;;;;;;;;;6.25;5.00;;;;;18.77;66.00;100934.47;4921046;28;45514;-72
2021/06/29 08:05:29;;;;;;;;;7.00;4.50;;;;;18.90;66.44;100952.66;4914734;28;45435;-71
2021/06/29 08:07:54;;;;;;;;;5.00;4.00;;;;;18.61;65.28;100907.56;4937669;28;45718;-70
2021/06/29 08:10:20;;;;;;;;;4.25;4.00;;;;;18.66;65.67;100920.75;4922752;28;45512;-69
2021/06/29 08:12:45;;;;;;;;;5.75;4.25;;;;;18.89;65.82;100957.19;4923307;28;45271;-71
2021/06/29 08:15:12;;;;;;;;;4.50;4.50;;;;;18.82;66.03;100937.75;4922387;28;45553;-71
2021/06/29 08:17:37;;;;;;;;;3.25;3.25;;;;;18.88;66.01;100953.63;4923063;28;46904;-71
2021/06/29 08:20:04;;;;;;;;;6.25;5.25;;;;;18.90;66.17;100961.63;4919005;28;47055;-71
2021/06/29 08:22:30;;;;;;;;;5.00;5.00;;;;;18.93;66.25;100958.75;4926835;28;45771;-72
2021/06/29 08:24:55;;;;;;;;;3.75;3.75;;;;;18.89;66.22;100943.66;4925688;28;45378;-71
2021/06/29 08:27:21;;;;;;;;;3.50;3.50;;;;;18.84;65.67;100930.47;4923947;28;45414;-72
2021/06/29 08:29:47;;;;;;;;;4.75;3.25;;;;;19.03;65.32;100959.03;4923390;28;46027;-71
2021/06/29 08:32:13;;;;;;;;;3.75;3.00;;;;;18.75;65.50;100912.06;4922480;28;45492;-71
2021/06/29 08:34:39;;;;;;;;;4.00;4.00;;;;;19.03;65.71;100956.31;4935775;28;45223;-71
2021/06/29 08:37:04;;;;;;;;;5.50;3.25;;;;;18.87;64.96;100921.25;4934831;28;45779;-71
2021/06/29 08:39:30;;;;;;;;;2.00;2.00;;;;;19.04;65.08;100963.44;4920555;28;45624;-71
2021/06/29 08:41:56;;;;;;;;;2.50;2.00;;;;;18.98;65.38;100947.63;4923289;28;45431;-71
2021/06/29 08:44:21;;;;;;;;;4.00;3.50;;;;;18.99;65.13;100946.66;4923352;28;45490;-71
2021/06/29 08:46:47;;;;;;;;;3.25;3.00;;;;;19.01;65.38;100948.31;4921986;28;45429;-72
2021/06/29 08:49:12;;;;;;;;;4.00;4.00;;;;;18.99;65.83;100944.81;4923786;28;45470;-71
2021/06/29 08:51:38;;;;;;;;;2.75;2.50;;;;;19.11;65.19;100951.28;4923371;28;45473;-72
2021/06/29 08:54:05;;;;;;;;;3.00;3.00;;;;;19.14;65.40;100955.59;4923578;28;45306;-72
2021/06/29 08:56:30;;;;;;;;;3.50;2.25;;;;;19.07;65.15;100931.66;4935605;28;45821;-71
2021/06/29 08:58:57;;;;;;;;;2.00;2.00;;;;;19.12;65.04;100952.16;4912648;28;45639;-71
2021/06/29 09:01:27;;;;;;;;;1.50;1.50;;;;;19.13;64.93;100949.34;4917908;28;45592;-71
2021/06/29 09:03:52;;;;;;;;;2.25;2.25;;;;;18.97;64.66;100922.41;4923560;28;45680;-71
2021/06/29 09:06:39;;;;;;;;;1.50;1.50;;;;;19.20;64.79;100956.06;4922877;28;45418;-71
2021/06/29 09:09:25;;;;;;;;;3.75;2.00;;;;;19.15;64.57;100943.84;4937224;28;47154;-71
2021/06/29 09:11:50;;;;;;;;;2.25;2.25;;;;;19.17;64.86;100948.16;4920046;28;45422;-71
2021/06/29 09:14:16;;;;;;;;;2.00;2.00;;;;;19.20;64.18;100949.81;4922306;28;45435;-72
2021/06/29 09:16:47;;;;;;;;;1.00;1.00;;;;;19.22;64.64;100951.44;4937649;28;45572;-72
2021/06/29 09:19:32;;;;;;;;;1.00;1.00;;;;;19.18;63.62;100939.09;4922883;28;46542;-71
2021/06/29 09:22:32;;;;;;;;;1.75;1.75;;;;;19.18;63.60;100952.63;4922837;28;45421;-71
2021/06/29 09:25:00;;;;;;;;;2.50;2.50;;;;;19.23;63.11;100946.91;4928505;28;45722;-71
2021/06/29 09:27:43;;;;;;;;;1.00;1.00;;;;;19.22;63.17;100937.03;4920778;28;45472;-71
2021/06/29 09:30:33;;;;;;;;;1.75;1.00;;;;;19.35;63.08;100950.66;4923059;28;45288;-70
2021/06/29 09:33:01;;;;;;;;;2.00;2.00;;;;;19.28;62.92;100933.03;4915884;28;45561;-71
2021/06/29 09:35:28;;;;;;;;;3.50;1.75;;;;;19.40;62.37;100941.22;4926576;28;45326;-71
2021/06/29 09:37:55;;;;;;;;;2.00;2.00;;;;;19.26;62.69;100908.78;4923106;28;45374;-71
2021/06/29 09:40:20;;;;;;;;;2.25;2.00;;;;;19.27;63.01;100906.97;4922983;28;46525;-72
2021/06/29 09:42:46;;;;;;;;;1.50;1.50;;;;;19.35;61.92;100918.16;4921463;28;45456;-71
2021/06/29 09:45:34;;;;;;;;;1.50;1.50;;;;;19.38;60.90;100909.84;4937792;28;45740;-71
2021/06/29 09:48:00;;;;;;;;;1.00;1.00;;;;;19.60;61.33;100945.31;4910337;28;45473;-71
2021/06/29 09:50:51;;;;;;;;;1.75;1.00;;;;;19.66;60.95;100941.31;4934652;28;48191;-71
2021/06/29 09:53:23;;;;;;;;;1.00;1.00;;;;;19.69;60.44;100937.56;4920438;28;45652;-71
2021/06/29 09:55:51;;;;;;;;;2.00;2.00;;;;;19.70;60.42;100933.88;4921646;28;45368;-71
2021/06/29 09:58:18;;;;;;;;;1.00;1.00;;;;;19.73;59.66;100929.13;4922794;28;45426;-71
2021/06/29 10:00:56;;;;;;;;;1.00;1.00;;;;;19.80;59.12;100935.88;4922111;28;45476;-71
2021/06/29 10:03:29;;;;;;;;;1.00;1.00;;;;;19.79;59.76;100927.84;4922400;28;45428;-73
2021/06/29 10:05:56;;;;;;;;;1.00;1.00;;;;;19.85;60.55;100930.16;4922777;28;45450;-73
2021/06/29 10:08:30;;;;;;;;;1.00;0.00;;;;;19.88;59.31;100932.66;4922428;28;45380;-72
2021/06/29 10:11:06;;;;;;;;;0.50;0.50;;;;;19.91;59.12;100934.28;4922231;28;47146;-72
2021/06/29 10:13:41;;;;;;;;;0.50;0.50;;;;;19.95;58.29;100941.22;4920833;28;45761;-72
2021/06/29 10:16:08;;;;;;;;;0.75;0.75;;;;;19.96;58.31;100932.09;4910528;28;45634;-72
2021/06/29 10:18:39;;;;;;;;;0.25;0.25;;;;;19.99;58.63;100930.06;4922050;28;45374;-71
2021/06/29 10:21:16;;;;;;;;;1.00;1.00;;;;;19.97;58.38;100923.03;4922496;28;45453;-72
2021/06/29 10:23:42;;;;;;;;;2.50;1.00;;;;;20.04;57.60;100923.47;4931175;28;45216;-71
2021/06/29 10:26:09;;;;;;;;;0.25;0.25;;;;;20.10;57.85;100931.19;4923212;28;45468;-72
2021/06/29 10:28:35;;;;;;;;;2.00;0.00;;;;;20.11;57.97;100922.06;4921698;28;45440;-72
2021/06/29 10:31:01;;;;;;;;;1.00;1.00;;;;;20.14;57.94;100935.41;4922192;28;45363;-72
2021/06/29 10:33:26;;;;;;;;;1.75;1.75;;;;;20.14;57.02;100927.25;4923999;28;45434;-72
2021/06/29 10:35:53;;;;;;;;;0.00;0.00;;;;;20.16;56.22;100928.91;4922283;28;45718;-72
2021/06/29 10:38:20;;;;;;;;;2.00;0.75;;;;;20.20;56.27;100928.66;4921752;28;45400;-72
2021/06/29 10:40:50;;;;;;;;;1.00;0.25;;;;;20.21;56.29;100928.56;4928123;28;47421;-72
2021/06/29 10:43:16;;;;;;;;;1.50;0.25;;;;;20.21;56.38;100925.84;4921418;28;45466;-72
2021/06/29 10:45:41;;;;;;;;;2.50;1.00;;;;;20.24;55.94;100919.38;4921835;28;45507;-72
2021/06/29 10:48:19;;;;;;;;;1.00;1.00;;;;;20.22;55.81;100905.06;4921679;28;45283;-72
2021/06/29 10:50:45;;;;;;;;;1.00;1.00;;;;;20.26;56.64;100920.97;4917848;28;45496;-71
2021/06/29 10:53:38;;;;;;;;;2.75;1.25;;;;;20.27;56.58;100925.44;4921209;28;45824;-71
2021/06/29 10:56:16;;;;;;;;;3.00;1.00;;;;;20.29;56.23;100926.19;4920749;28;45772;-71
2021/06/29 10:58:51;;;;;;;;;1.50;1.50;;;;;20.29;56.76;100918.06;4915786;28;45453;-77
2021/06/29 11:01:25;;;;;;;;;0.25;0.25;;;;;20.29;56.64;100918.06;4917130;28;46643;-73
2021/06/29 11:03:57;;;;;;;;;2.00;2.00;;;;;20.32;56.49;100912.41;4917589;28;45784;-71
2021/06/29 11:06:46;;;;;;;;;1.25;1.00;;;;;20.28;56.12;100905.50;4917507;28;45555;-71
2021/06/29 11:09:21;;;;;;;;;1.00;1.00;;;;;20.35;56.47;100914.91;4916713;28;45844;-71
2021/06/29 11:12:24;;;;;;;;;1.00;1.00;;;;;20.37;55.98;100922.94;4917276;28;45598;-71
2021/06/29 11:14:56;;;;;;;;;0.00;0.00;;;;;20.35;56.08;100919.47;4917115;28;45547;-71
2021/06/29 11:17:23;;;;;;;;;2.00;1.75;;;;;20.34;55.64;100915.03;4915638;28;45695;-71
2021/06/29 11:20:00;;;;;;;;;0.00;0.00;;;;;20.43;55.51;100921.63;4916007;28;45710;-72
2021/06/29 11:22:49;;;;;;;;;1.00;1.00;;;;;20.42;55.03;100920.78;4910231;28;46278;-71
2021/06/29 11:25:29;;;;;;;;;0.75;0.00;;;;;20.40;54.81;100919.13;4927470;28;45553;-71
2021/06/29 11:28:13;;;;;;;;;1.00;1.00;;;;;20.38;54.60;100915.66;4917159;28;45699;-70
2021/06/29 11:30:50;;;;;;;;;1.00;1.00;;;;;20.41;54.74;100924.44;4916137;28;45544;-69
2021/06/29 11:33:49;;;;;;;;;1.00;1.00;;;;;20.44;55.23;100923.38;4915744;28;46917;-71